Time;durP1;ratioP1;P1;durP2;ratioP2;P2;SDS_P1;SDS_P2;PMS_P1;PMS_P2;Temp;Humidity;BMP_temperature;BMP_pressure;BME280_temperature;BME280_humidity;BME280_pressure;Samples;Min_cycle;Max_cycle;Signal;HPM_P1;HPM_P2
2022/08/08 00:01:15;;;;;;;1.30;1.20;;;;;;;;;;5043866;28;20197;-69
2022/08/08 00:04:02;;;;;;;1.50;1.40;;;;;;;;;;5047690;28;20202;-69
2022/08/08 00:06:56;;;;;;;1.30;1.30;;;;;;;;;;5025742;28;20211;-69
2022/08/08 00:10:04;;;;;;;1.70;1.60;;;;;;;;;;5059253;28;20201;-70
2022/08/08 00:12:44;;;;;;;1.20;1.20;;;;;;;;;;5038792;28;20202;-68
2022/08/08 00:15:31;;;;;;;1.50;1.40;;;;;;;;;;5048520;28;20300;-67
2022/08/08 00:18:19;;;;;;;1.53;1.43;;;;;;;;;;5063825;28;20687;-68
2022/08/08 00:20:59;;;;;;;1.50;1.40;;;;;;;;;;5067054;28;20225;-68
2022/08/08 00:23:44;;;;;;;1.60;1.40;;;;;;;;;;5064498;28;20250;-68
2022/08/08 00:26:30;;;;;;;1.53;1.43;;;;;;;;;;5048711;28;20209;-68
2022/08/08 00:29:07;;;;;;;1.27;1.17;;;;;;;;;;5067372;28;20204;-68
2022/08/08 00:31:39;;;;;;;1.43;1.33;;;;;;;;;;5044929;28;20232;-68
2022/08/08 00:38:03;;;;;;;1.33;1.30;;;;;;;;;;5063436;28;20263;-69
2022/08/08 00:41:03;;;;;;;1.10;1.10;;;;;;;;;;5047408;28;20201;-68
2022/08/08 00:44:08;;;;;;;1.00;1.00;;;;;;;;;;4989525;28;20256;-68
2022/08/08 00:46:55;;;;;;;1.40;1.30;;;;;;;;;;4974947;28;20193;-68
2022/08/08 00:49:38;;;;;;;1.30;1.20;;;;;;;;;;4988103;28;20533;-68
2022/08/08 00:52:21;;;;;;;1.10;1.10;;;;;;;;;;4976347;28;20223;-68
2022/08/08 00:55:02;;;;;;;2.03;1.30;;;;;;;;;;4987766;28;20549;-68
2022/08/08 00:57:51;;;;;;;1.47;1.37;;;;;;;;;;4979407;28;20227;-68
2022/08/08 01:00:26;;;;;;;1.73;1.60;;;;;;;;;;4977300;28;20209;-68
2022/08/08 01:03:37;;;;;;;1.30;1.20;;;;;;;;;;4968106;28;20670;-68
2022/08/08 01:06:47;;;;;;;1.37;1.27;;;;;;;;;;4987980;28;20348;-68
2022/08/08 01:09:46;;;;;;;1.30;1.20;;;;;;;;;;4989663;28;20304;-68
2022/08/08 01:12:22;;;;;;;1.40;1.30;;;;;;;;;;4956857;28;20236;-68
2022/08/08 01:15:24;;;;;;;1.30;1.20;;;;;;;;;;4953433;28;20346;-67
2022/08/08 01:18:15;;;;;;;1.20;1.10;;;;;;;;;;4996170;28;20772;-68
2022/08/08 01:21:10;;;;;;;1.40;1.30;;;;;;;;;;5066509;28;20197;-68
2022/08/08 01:24:06;;;;;;;1.50;1.40;;;;;;;;;;5071697;28;20193;-68
2022/08/08 01:26:56;;;;;;;1.40;1.30;;;;;;;;;;5071279;28;20665;-68
2022/08/08 01:29:54;;;;;;;1.47;1.33;;;;;;;;;;5065332;28;20201;-68
2022/08/08 01:32:47;;;;;;;1.23;1.13;;;;;;;;;;5056488;28;20199;-68
2022/08/08 01:35:32;;;;;;;1.33;1.20;;;;;;;;;;5069915;28;20193;-68
2022/08/08 01:38:25;;;;;;;1.47;1.37;;;;;;;;;;5072095;28;20829;-68
2022/08/08 01:41:08;;;;;;;1.50;1.40;;;;;;;;;;5075588;28;20221;-68
2022/08/08 01:43:58;;;;;;;1.80;1.70;;;;;;;;;;5042596;28;20240;-68
2022/08/08 01:46:39;;;;;;;1.33;1.23;;;;;;;;;;5054199;28;20204;-68
2022/08/08 01:49:22;;;;;;;1.43;1.33;;;;;;;;;;5031214;28;20222;-69
2022/08/08 01:52:27;;;;;;;1.60;1.50;;;;;;;;;;5052641;28;20623;-68
2022/08/08 01:55:42;;;;;;;1.43;1.33;;;;;;;;;;5012991;28;20213;-68
2022/08/08 01:58:58;;;;;;;1.50;1.40;;;;;;;;;;5046845;28;20214;-68
2022/08/08 02:01:49;;;;;;;1.30;1.20;;;;;;;;;;5043547;28;20241;-68
2022/08/08 02:04:40;;;;;;;1.70;1.60;;;;;;;;;;5050098;28;20202;-67
2022/08/08 02:07:23;;;;;;;1.40;1.30;;;;;;;;;;5017854;28;20225;-68
2022/08/08 02:10:27;;;;;;;1.10;1.10;;;;;;;;;;5032312;28;20206;-68
2022/08/08 02:13:17;;;;;;;1.40;1.30;;;;;;;;;;5043893;28;20659;-68
2022/08/08 02:16:30;;;;;;;1.40;1.30;;;;;;;;;;5032245;28;20204;-67
2022/08/08 02:19:02;;;;;;;1.50;1.40;;;;;;;;;;5036104;28;20214;-68
2022/08/08 02:25:11;;;;;;;1.40;1.30;;;;;;;;;;5049076;28;20183;-68
2022/08/08 02:27:53;;;;;;;1.40;1.30;;;;;;;;;;5052424;28;20205;-68
2022/08/08 02:30:35;;;;;;;1.43;1.33;;;;;;;;;;5029254;28;20494;-68
2022/08/08 02:33:37;;;;;;;1.50;1.40;;;;;;;;;;5047098;28;20199;-67
2022/08/08 02:36:42;;;;;;;1.30;1.30;;;;;;;;;;5048499;28;20221;-68
2022/08/08 02:39:12;;;;;;;1.40;1.30;;;;;;;;;;5046178;28;20225;-68
2022/08/08 02:42:24;;;;;;;1.40;1.30;;;;;;;;;;5030595;28;20214;-68
2022/08/08 02:45:26;;;;;;;1.53;1.43;;;;;;;;;;5063035;28;20197;-68
2022/08/08 02:48:23;;;;;;;1.63;1.53;;;;;;;;;;5062742;28;20209;-68
2022/08/08 02:51:17;;;;;;;1.77;1.67;;;;;;;;;;5067333;28;20205;-68
2022/08/08 02:54:16;;;;;;;1.50;1.40;;;;;;;;;;5064050;28;20245;-68
2022/08/08 02:56:54;;;;;;;1.37;1.27;;;;;;;;;;5071781;28;20193;-68
2022/08/08 02:59:49;;;;;;;1.50;1.40;;;;;;;;;;5066239;28;20205;-67
2022/08/08 03:02:47;;;;;;;1.50;1.40;;;;;;;;;;5058698;28;20721;-68
2022/08/08 03:05:35;;;;;;;1.60;1.50;;;;;;;;;;5079041;28;20227;-68
2022/08/08 03:08:31;;;;;;;1.40;1.30;;;;;;;;;;5069247;28;20205;-68
2022/08/08 03:11:20;;;;;;;1.50;1.40;;;;;;;;;;5084115;28;20624;-67
2022/08/08 03:14:14;;;;;;;1.50;1.40;;;;;;;;;;5081793;28;20816;-67
2022/08/08 03:17:14;;;;;;;1.80;1.70;;;;;;;;;;5065051;28;20206;-67
2022/08/08 03:20:12;;;;;;;1.70;1.60;;;;;;;;;;5067157;28;20207;-67
2022/08/08 03:22:51;;;;;;;1.40;1.30;;;;;;;;;;5075606;28;20265;-68
2022/08/08 03:25:35;;;;;;;1.40;1.30;;;;;;;;;;5068311;28;20189;-68
2022/08/08 03:28:08;;;;;;;1.40;1.30;;;;;;;;;;5067831;28;20205;-68
2022/08/08 03:30:39;;;;;;;1.60;1.50;;;;;;;;;;5063339;28;20229;-68
2022/08/08 03:33:19;;;;;;;1.70;1.60;;;;;;;;;;5065380;28;20202;-67
2022/08/08 03:36:17;;;;;;;1.40;1.30;;;;;;;;;;5066541;28;20200;-68
2022/08/08 03:39:00;;;;;;;1.47;1.37;;;;;;;;;;5070887;28;20185;-69
2022/08/08 03:41:42;;;;;;;1.60;1.50;;;;;;;;;;5073970;28;20242;-67
2022/08/08 03:44:32;;;;;;;1.40;1.30;;;;;;;;;;5056391;28;20249;-68
2022/08/08 03:47:03;;;;;;;1.43;1.33;;;;;;;;;;5070523;28;20197;-68
2022/08/08 03:49:46;;;;;;;1.53;1.43;;;;;;;;;;5056684;28;20241;-68
2022/08/08 03:52:30;;;;;;;1.47;1.40;;;;;;;;;;5067597;28;20194;-67
2022/08/08 03:55:08;;;;;;;1.50;1.40;;;;;;;;;;5050964;28;20699;-68
2022/08/08 03:57:58;;;;;;;1.43;1.37;;;;;;;;;;5069531;28;20185;-68
2022/08/08 04:00:53;;;;;;;1.47;1.37;;;;;;;;;;5064960;28;20192;-66
2022/08/08 04:03:46;;;;;;;1.70;1.60;;;;;;;;;;5087639;28;20232;-67
2022/08/08 04:06:29;;;;;;;1.10;1.10;;;;;;;;;;5070525;28;20777;-66
2022/08/08 04:08:59;;;;;;;1.60;1.50;;;;;;;;;;5086932;28;20530;-66
2022/08/08 04:11:43;;;;;;;1.40;1.30;;;;;;;;;;5070259;28;20185;-66
2022/08/08 04:14:27;;;;;;;1.47;1.37;;;;;;;;;;5068669;28;20206;-66
2022/08/08 04:17:01;;;;;;;1.50;1.40;;;;;;;;;;5077654;28;20185;-66
2022/08/08 04:19:57;;;;;;;1.30;1.20;;;;;;;;;;5086787;28;20256;-66
2022/08/08 04:22:39;;;;;;;1.60;1.50;;;;;;;;;;5068904;28;20689;-66
2022/08/08 04:25:11;;;;;;;1.37;1.27;;;;;;;;;;5073027;28;20642;-67
2022/08/08 04:27:42;;;;;;;1.20;1.20;;;;;;;;;;5085861;28;20200;-67
2022/08/08 04:31:01;;;;;;;1.80;1.70;;;;;;;;;;5083276;28;20228;-67
2022/08/08 04:33:37;;;;;;;1.47;1.37;;;;;;;;;;5084810;28;20208;-67
2022/08/08 04:36:11;;;;;;;1.70;1.60;;;;;;;;;;5087189;28;20208;-66
2022/08/08 04:38:49;;;;;;;1.50;1.40;;;;;;;;;;5070730;28;20203;-66
2022/08/08 04:41:42;;;;;;;1.30;1.30;;;;;;;;;;5084008;28;20753;-66
2022/08/08 04:44:12;;;;;;;1.70;1.60;;;;;;;;;;5061742;28;20230;-66
2022/08/08 04:46:57;;;;;;;1.53;1.43;;;;;;;;;;5041451;28;20865;-68
2022/08/08 04:49:39;;;;;;;1.60;1.50;;;;;;;;;;5045720;28;20260;-68
2022/08/08 04:52:30;;;;;;;1.50;1.40;;;;;;;;;;5050707;28;20228;-66
2022/08/08 04:55:02;;;;;;;2.60;1.37;;;;;;;;;;5042027;28;20230;-66
2022/08/08 04:57:33;;;;;;;1.60;1.50;;;;;;;;;;5044384;28;20210;-66
2022/08/08 05:00:03;;;;;;;1.80;1.70;;;;;;;;;;5045567;28;20567;-66
2022/08/08 05:02:37;;;;;;;1.40;1.30;;;;;;;;;;5045952;28;20190;-66
2022/08/08 05:05:20;;;;;;;1.80;1.70;;;;;;;;;;5040831;28;20245;-66
2022/08/08 05:08:18;;;;;;;1.60;1.50;;;;;;;;;;5043369;28;20207;-66
2022/08/08 05:11:01;;;;;;;1.90;1.80;;;;;;;;;;5047038;28;20194;-66
2022/08/08 05:13:33;;;;;;;1.90;1.70;;;;;;;;;;5044493;28;20212;-66
2022/08/08 05:16:23;;;;;;;2.50;1.60;;;;;;;;;;5046425;28;20205;-66
2022/08/08 05:19:04;;;;;;;1.67;1.57;;;;;;;;;;5054032;28;20296;-66
2022/08/08 05:21:55;;;;;;;1.90;1.80;;;;;;;;;;5043356;28;20281;-67
2022/08/08 05:24:28;;;;;;;1.77;1.67;;;;;;;;;;5044706;28;20222;-68
2022/08/08 05:27:08;;;;;;;1.70;1.60;;;;;;;;;;5046779;28;20205;-68
2022/08/08 05:29:42;;;;;;;1.87;1.77;;;;;;;;;;5042544;28;20533;-68
2022/08/08 05:32:19;;;;;;;1.60;1.50;;;;;;;;;;5061422;28;20209;-66
2022/08/08 05:34:54;;;;;;;1.60;1.50;;;;;;;;;;5039016;28;20214;-66
2022/08/08 05:37:29;;;;;;;1.70;1.60;;;;;;;;;;5022273;28;20205;-65
2022/08/08 05:40:22;;;;;;;1.50;1.40;;;;;;;;;;5051629;28;20244;-65
2022/08/08 05:43:03;;;;;;;1.57;1.47;;;;;;;;;;5017608;28;20242;-66
2022/08/08 05:45:56;;;;;;;1.70;1.60;;;;;;;;;;5015693;28;20199;-67
2022/08/08 05:48:35;;;;;;;2.20;1.60;;;;;;;;;;5050189;28;20201;-68
2022/08/08 05:51:10;;;;;;;1.70;1.60;;;;;;;;;;5032278;28;20204;-67
2022/08/08 05:53:46;;;;;;;1.70;1.60;;;;;;;;;;5046200;28;20213;-68
2022/08/08 05:56:40;;;;;;;1.40;1.30;;;;;;;;;;5028513;28;20209;-67
2022/08/08 05:59:35;;;;;;;1.60;1.50;;;;;;;;;;5018103;28;20202;-68
2022/08/08 06:05:22;;;;;;;2.23;1.60;;;;;;;;;;5030006;28;20587;-66
2022/08/08 06:08:04;;;;;;;1.50;1.40;;;;;;;;;;5034045;28;20539;-66
2022/08/08 06:10:41;;;;;;;2.00;1.60;;;;;;;;;;5032136;28;20255;-68
2022/08/08 06:13:15;;;;;;;1.90;1.80;;;;;;;;;;5045835;28;20203;-68
2022/08/08 06:15:57;;;;;;;1.73;1.50;;;;;;;;;;5032455;28;20202;-67
2022/08/08 06:18:29;;;;;;;1.67;1.57;;;;;;;;;;5016740;28;20261;-67
2022/08/08 06:21:00;;;;;;;1.60;1.50;;;;;;;;;;5053435;28;20199;-68
2022/08/08 06:23:55;;;;;;;1.70;1.60;;;;;;;;;;5026902;28;20198;-68
2022/08/08 06:26:42;;;;;;;1.80;1.70;;;;;;;;;;5049124;28;20198;-68
2022/08/08 06:29:29;;;;;;;1.50;1.40;;;;;;;;;;5028026;28;20198;-68
2022/08/08 06:32:25;;;;;;;1.80;1.70;;;;;;;;;;5048888;28;20198;-66
2022/08/08 06:34:55;;;;;;;1.90;1.70;;;;;;;;;;5052123;28;20258;-66
2022/08/08 06:37:54;;;;;;;2.10;2.00;;;;;;;;;;5048533;28;20588;-67
2022/08/08 06:40:27;;;;;;;1.73;1.63;;;;;;;;;;5048848;28;20198;-67
2022/08/08 06:43:26;;;;;;;1.80;1.70;;;;;;;;;;5050884;28;20686;-67
2022/08/08 06:46:02;;;;;;;1.37;1.27;;;;;;;;;;5053076;28;20240;-68
2022/08/08 06:48:36;;;;;;;1.90;1.80;;;;;;;;;;5072064;28;20223;-68
2022/08/08 06:51:07;;;;;;;1.83;1.73;;;;;;;;;;5066251;28;20871;-67
2022/08/08 06:53:38;;;;;;;1.70;1.60;;;;;;;;;;5064762;28;20228;-68
2022/08/08 06:56:25;;;;;;;1.67;1.57;;;;;;;;;;5055049;28;20221;-67
2022/08/08 06:59:12;;;;;;;1.73;1.63;;;;;;;;;;5063268;28;20260;-67
2022/08/08 07:01:45;;;;;;;2.00;1.70;;;;;;;;;;5069169;28;20216;-68
2022/08/08 07:05:07;;;;;;;1.67;1.57;;;;;;;;;;5061099;28;20227;-68
2022/08/08 07:08:04;;;;;;;2.20;1.50;;;;;;;;;;4998863;28;20830;-67
2022/08/08 07:10:40;;;;;;;2.17;1.97;;;;;;;;;;5068443;28;20208;-67
2022/08/08 07:13:20;;;;;;;1.83;1.70;;;;;;;;;;5049536;28;20592;-68
2022/08/08 07:16:06;;;;;;;1.47;1.37;;;;;;;;;;5058710;28;20247;-68
2022/08/08 07:18:52;;;;;;;1.87;1.77;;;;;;;;;;5068252;28;20272;-68
2022/08/08 07:21:32;;;;;;;1.53;1.43;;;;;;;;;;5064454;28;20650;-65
2022/08/08 07:24:07;;;;;;;1.90;1.80;;;;;;;;;;5067577;28;20212;-65
2022/08/08 07:26:42;;;;;;;1.70;1.60;;;;;;;;;;5057883;28;20296;-67
2022/08/08 07:29:18;;;;;;;1.60;1.50;;;;;;;;;;5044104;28;20198;-67
2022/08/08 07:32:12;;;;;;;1.70;1.60;;;;;;;;;;5072218;28;20283;-66
2022/08/08 07:34:50;;;;;;;2.10;1.70;;;;;;;;;;5039848;28;20252;-66
2022/08/08 07:37:33;;;;;;;1.90;1.80;;;;;;;;;;5046605;28;20240;-67
2022/08/08 07:40:17;;;;;;;2.37;1.57;;;;;;;;;;5060737;28;20590;-66
2022/08/08 07:43:10;;;;;;;1.90;1.80;;;;;;;;;;5052693;28;20286;-66
2022/08/08 07:45:40;;;;;;;1.87;1.77;;;;;;;;;;5068338;28;20209;-66
2022/08/08 07:48:32;;;;;;;1.90;1.80;;;;;;;;;;5076216;28;20293;-66
2022/08/08 07:51:04;;;;;;;2.00;1.60;;;;;;;;;;5055717;28;20198;-66
2022/08/08 07:54:17;;;;;;;1.60;1.50;;;;;;;;;;5047716;28;20201;-65
2022/08/08 07:56:58;;;;;;;1.80;1.70;;;;;;;;;;5013555;28;20207;-66
2022/08/08 07:59:36;;;;;;;1.50;1.40;;;;;;;;;;5068599;28;20305;-67
2022/08/08 08:02:06;;;;;;;2.33;2.03;;;;;;;;;;5077687;28;20769;-67
2022/08/08 08:05:01;;;;;;;1.90;1.80;;;;;;;;;;5073860;28;20229;-67
2022/08/08 08:07:46;;;;;;;2.30;1.60;;;;;;;;;;5067508;28;20194;-65
2022/08/08 08:10:22;;;;;;;1.73;1.60;;;;;;;;;;5069840;28;20197;-66
2022/08/08 08:13:21;;;;;;;1.90;1.67;;;;;;;;;;5054788;28;20270;-69
2022/08/08 08:16:38;;;;;;;1.70;1.60;;;;;;;;;;5069452;28;20662;-67
2022/08/08 08:19:18;;;;;;;3.30;1.67;;;;;;;;;;5058998;28;20266;-68
2022/08/08 08:21:52;;;;;;;1.80;1.70;;;;;;;;;;5067398;28;20204;-68
2022/08/08 08:24:36;;;;;;;1.90;1.77;;;;;;;;;;5066915;28;20243;-68
2022/08/08 08:27:18;;;;;;;1.60;1.50;;;;;;;;;;5064103;28;20502;-68
2022/08/08 08:29:47;;;;;;;2.30;1.80;;;;;;;;;;5046446;28;20214;-68
2022/08/08 08:32:22;;;;;;;1.77;1.67;;;;;;;;;;5070419;28;20194;-66
2022/08/08 08:35:04;;;;;;;1.70;1.60;;;;;;;;;;5054090;28;20225;-66
2022/08/08 08:37:35;;;;;;;1.63;1.53;;;;;;;;;;5064766;28;20682;-68
2022/08/08 08:40:40;;;;;;;1.80;1.70;;;;;;;;;;5066782;28;20274;-68
2022/08/08 08:43:19;;;;;;;1.57;1.47;;;;;;;;;;5035670;28;20667;-69
2022/08/08 08:45:56;;;;;;;1.73;1.43;;;;;;;;;;5026375;28;20202;-69
2022/08/08 08:48:30;;;;;;;1.97;1.60;;;;;;;;;;5046759;28;20232;-69
2022/08/08 08:51:03;;;;;;;1.70;1.60;;;;;;;;;;5038087;28;20200;-68
2022/08/08 08:53:38;;;;;;;2.00;1.70;;;;;;;;;;5035817;28;20652;-68
2022/08/08 08:56:29;;;;;;;2.30;1.60;;;;;;;;;;5027347;28;20230;-66
2022/08/08 08:59:03;;;;;;;1.97;1.70;;;;;;;;;;5045424;28;20256;-66
2022/08/08 09:01:37;;;;;;;2.70;1.90;;;;;;;;;;5043406;28;20241;-67
2022/08/08 09:04:21;;;;;;;2.70;1.80;;;;;;;;;;5046894;28;20245;-67
2022/08/08 09:07:03;;;;;;;1.60;1.43;;;;;;;;;;5046906;28;20209;-68
2022/08/08 09:09:40;;;;;;;1.73;1.60;;;;;;;;;;5050458;28;20404;-68
2022/08/08 09:12:21;;;;;;;1.50;1.40;;;;;;;;;;5050748;28;20217;-69
2022/08/08 09:14:57;;;;;;;2.10;1.77;;;;;;;;;;5049695;28;20191;-69
2022/08/08 09:17:27;;;;;;;1.77;1.67;;;;;;;;;;5038885;28;20210;-68
2022/08/08 09:20:10;;;;;;;1.60;1.40;;;;;;;;;;5050760;28;20182;-68
2022/08/08 09:23:07;;;;;;;1.63;1.53;;;;;;;;;;5049095;28;20862;-68
2022/08/08 09:25:59;;;;;;;1.87;1.77;;;;;;;;;;5054190;28;20190;-68
2022/08/08 09:28:35;;;;;;;1.60;1.50;;;;;;;;;;5044133;28;20194;-69
2022/08/08 09:31:14;;;;;;;2.33;1.90;;;;;;;;;;5048888;28;20210;-69
2022/08/08 09:33:47;;;;;;;2.07;1.30;;;;;;;;;;5050232;28;20202;-69
2022/08/08 09:36:46;;;;;;;2.17;1.97;;;;;;;;;;5022491;28;20214;-68
2022/08/08 09:39:57;;;;;;;2.20;1.80;;;;;;;;;;5039009;28;20201;-68
2022/08/08 09:42:51;;;;;;;1.47;1.37;;;;;;;;;;5033040;28;20214;-66
2022/08/08 09:45:26;;;;;;;1.90;1.70;;;;;;;;;;5069714;28;20233;-68
2022/08/08 09:48:19;;;;;;;1.50;1.40;;;;;;;;;;5070005;28;20280;-69
2022/08/08 09:51:01;;;;;;;1.63;1.30;;;;;;;;;;5070023;28;20198;-68
2022/08/08 09:53:57;;;;;;;1.50;1.37;;;;;;;;;;5063506;28;20197;-68
2022/08/08 09:56:52;;;;;;;1.83;1.50;;;;;;;;;;5055884;28;20237;-69
2022/08/08 09:59:28;;;;;;;1.70;1.60;;;;;;;;;;5071653;28;20647;-68
2022/08/08 10:02:23;;;;;;;1.60;1.30;;;;;;;;;;5070009;28;20708;-67
2022/08/08 10:05:04;;;;;;;1.50;1.30;;;;;;;;;;5053470;28;20688;-67
2022/08/08 10:07:53;;;;;;;1.93;1.40;;;;;;;;;;5081170;28;20209;-67
2022/08/08 10:10:29;;;;;;;1.50;1.40;;;;;;;;;;5073060;28;20610;-67
2022/08/08 10:13:18;;;;;;;1.50;1.40;;;;;;;;;;5073076;28;20669;-68
2022/08/08 10:16:02;;;;;;;1.67;1.47;;;;;;;;;;5076118;28;20597;-68
2022/08/08 10:18:50;;;;;;;1.50;1.40;;;;;;;;;;5043476;28;20292;-68
2022/08/08 10:21:25;;;;;;;1.47;1.27;;;;;;;;;;5051267;28;20190;-66
2022/08/08 10:24:20;;;;;;;1.13;1.00;;;;;;;;;;5058306;28;20220;-66
2022/08/08 10:27:02;;;;;;;1.37;1.20;;;;;;;;;;5060431;28;20742;-65
2022/08/08 10:29:50;;;;;;;1.30;1.20;;;;;;;;;;5064309;28;20205;-65
2022/08/08 10:32:35;;;;;;;1.70;1.40;;;;;;;;;;5069739;28;20205;-65
2022/08/08 10:35:23;;;;;;;1.30;1.20;;;;;;;;;;5069250;28;20276;-65
2022/08/08 10:38:23;;;;;;;1.30;1.20;;;;;;;;;;5066828;28;20202;-65
2022/08/08 10:41:18;;;;;;;1.30;1.20;;;;;;;;;;5069795;28;20284;-66
2022/08/08 10:43:50;;;;;;;1.40;1.10;;;;;;;;;;5064368;28;20698;-67
2022/08/08 10:46:25;;;;;;;1.67;1.20;;;;;;;;;;5052722;28;20734;-66
2022/08/08 10:48:59;;;;;;;1.83;1.33;;;;;;;;;;5052082;28;20615;-66
2022/08/08 10:52:04;;;;;;;1.40;1.30;;;;;;;;;;5056333;28;20191;-66
2022/08/08 10:54:55;;;;;;;1.30;1.20;;;;;;;;;;5058126;28;20210;-66
2022/08/08 10:57:37;;;;;;;1.53;1.20;;;;;;;;;;5051476;28;20584;-67
2022/08/08 11:00:26;;;;;;;1.27;1.20;;;;;;;;;;5071364;28;20524;-66
2022/08/08 11:02:57;;;;;;;1.57;1.40;;;;;;;;;;5058813;28;20200;-68
2022/08/08 11:05:29;;;;;;;1.90;1.40;;;;;;;;;;5049791;28;20568;-68
2022/08/08 11:08:30;;;;;;;1.40;1.13;;;;;;;;;;5068104;28;20247;-69
2022/08/08 11:11:11;;;;;;;1.00;1.00;;;;;;;;;;5067703;28;20205;-67
2022/08/08 11:14:02;;;;;;;1.30;1.10;;;;;;;;;;5049789;28;20573;-66
2022/08/08 11:16:34;;;;;;;1.20;1.10;;;;;;;;;;5058112;28;20233;-66
2022/08/08 11:19:03;;;;;;;2.70;1.10;;;;;;;;;;5043131;28;20202;-67
2022/08/08 11:21:44;;;;;;;1.40;0.90;;;;;;;;;;5035653;28;20205;-67
2022/08/08 11:24:25;;;;;;;1.23;1.10;;;;;;;;;;5070463;28;20604;-67
2022/08/08 11:27:02;;;;;;;1.30;1.20;;;;;;;;;;5072776;28;20697;-68
2022/08/08 11:29:48;;;;;;;2.07;1.10;;;;;;;;;;5063695;28;20229;-69
2022/08/08 11:32:46;;;;;;;1.77;1.30;;;;;;;;;;5068082;28;20193;-67
2022/08/08 11:35:21;;;;;;;1.60;1.10;;;;;;;;;;5047112;28;20224;-68
2022/08/08 11:38:10;;;;;;;1.83;1.37;;;;;;;;;;5067918;28;20186;-69
2022/08/08 11:41:01;;;;;;;1.70;1.17;;;;;;;;;;5070891;28;20182;-69
2022/08/08 11:43:33;;;;;;;1.10;1.00;;;;;;;;;;5060227;28;20291;-69
2022/08/08 11:46:05;;;;;;;1.30;1.20;;;;;;;;;;5046172;28;20189;-68
2022/08/08 11:48:48;;;;;;;1.20;1.00;;;;;;;;;;5067622;28;20189;-69
2022/08/08 11:51:23;;;;;;;1.60;1.27;;;;;;;;;;5065047;28;20792;-67
2022/08/08 11:54:09;;;;;;;1.40;1.10;;;;;;;;;;5061468;28;20279;-67
2022/08/08 11:57:12;;;;;;;1.77;1.00;;;;;;;;;;5046846;28;20668;-67
2022/08/08 12:00:07;;;;;;;1.70;1.03;;;;;;;;;;5052180;28;20286;-66
2022/08/08 12:02:47;;;;;;;1.57;1.17;;;;;;;;;;5041383;28;20728;-69
2022/08/08 12:05:31;;;;;;;1.60;1.17;;;;;;;;;;5064980;28;20197;-68
2022/08/08 12:08:13;;;;;;;1.77;1.20;;;;;;;;;;5070466;28;20210;-68
2022/08/08 12:10:48;;;;;;;0.97;0.97;;;;;;;;;;5054271;28;20189;-69
2022/08/08 12:13:23;;;;;;;1.63;1.33;;;;;;;;;;5064594;28;20194;-67
2022/08/08 12:16:18;;;;;;;0.97;0.90;;;;;;;;;;5065973;28;20214;-69
2022/08/08 12:19:10;;;;;;;1.23;0.80;;;;;;;;;;5067463;28;20193;-69
2022/08/08 12:21:42;;;;;;;1.50;1.17;;;;;;;;;;5066385;28;20193;-68
2022/08/08 12:24:31;;;;;;;1.23;1.00;;;;;;;;;;5069143;28;20202;-69
2022/08/08 12:27:04;;;;;;;1.30;0.90;;;;;;;;;;5067126;28;20198;-67
2022/08/08 12:29:39;;;;;;;2.20;1.27;;;;;;;;;;5059255;28;20482;-67
2022/08/08 12:32:19;;;;;;;1.53;1.10;;;;;;;;;;5063326;28;20560;-68
2022/08/08 12:35:03;;;;;;;1.17;1.00;;;;;;;;;;5065479;28;20224;-69
2022/08/08 12:37:48;;;;;;;1.80;1.00;;;;;;;;;;5066803;28;20209;-69
2022/08/08 12:40:36;;;;;;;1.33;0.80;;;;;;;;;;5067188;28;20352;-67
2022/08/08 12:43:31;;;;;;;1.30;1.00;;;;;;;;;;5057009;28;20233;-66
2022/08/08 12:46:23;;;;;;;1.50;1.20;;;;;;;;;;5065233;28;20229;-68
2022/08/08 12:49:00;;;;;;;1.30;1.20;;;;;;;;;;5053107;28;20570;-68
2022/08/08 12:51:54;;;;;;;1.97;0.90;;;;;;;;;;5067420;28;20252;-66
2022/08/08 12:54:33;;;;;;;1.47;0.90;;;;;;;;;;5070222;28;20208;-66
2022/08/08 12:57:22;;;;;;;1.40;1.30;;;;;;;;;;5062133;28;20237;-67
2022/08/08 13:00:26;;;;;;;1.17;0.97;;;;;;;;;;5063066;28;20190;-67
2022/08/08 13:03:05;;;;;;;1.10;1.00;;;;;;;;;;5050693;28;20562;-67
2022/08/08 13:05:37;;;;;;;1.30;1.10;;;;;;;;;;5047515;28;20220;-68
2022/08/08 13:08:52;;;;;;;2.40;0.90;;;;;;;;;;5058669;28;20209;-67
2022/08/08 13:11:34;;;;;;;1.63;1.10;;;;;;;;;;5049143;28;20206;-68
2022/08/08 13:14:45;;;;;;;1.27;1.10;;;;;;;;;;5067468;28;20411;-67
2022/08/08 13:17:26;;;;;;;1.07;0.90;;;;;;;;;;5064161;28;20209;-67
2022/08/08 13:20:25;;;;;;;0.80;0.80;;;;;;;;;;5032541;28;20288;-68
2022/08/08 13:22:56;;;;;;;1.80;0.93;;;;;;;;;;5049098;28;20552;-68
2022/08/08 13:25:48;;;;;;;1.27;1.00;;;;;;;;;;5062502;28;20190;-68
2022/08/08 13:28:31;;;;;;;1.00;0.90;;;;;;;;;;5061406;28;20213;-67
2022/08/08 13:31:13;;;;;;;1.00;0.90;;;;;;;;;;5063633;28;20201;-65
2022/08/08 13:33:48;;;;;;;0.97;0.87;;;;;;;;;;5063750;28;20207;-67
2022/08/08 13:36:31;;;;;;;0.97;0.97;;;;;;;;;;5064811;28;20222;-66
2022/08/08 13:39:00;;;;;;;1.13;0.90;;;;;;;;;;5065985;28;20194;-67
2022/08/08 13:41:46;;;;;;;1.40;1.20;;;;;;;;;;5063911;28;20643;-67
2022/08/08 13:44:29;;;;;;;0.83;0.73;;;;;;;;;;5060039;28;20563;-65
2022/08/08 13:47:02;;;;;;;1.20;1.10;;;;;;;;;;5048710;28;20615;-67
2022/08/08 13:49:33;;;;;;;1.27;0.90;;;;;;;;;;5049075;28;20217;-67
2022/08/08 13:52:28;;;;;;;1.03;0.90;;;;;;;;;;5070127;28;20225;-67
2022/08/08 13:55:06;;;;;;;1.63;0.93;;;;;;;;;;5069568;28;20197;-67
2022/08/08 13:57:37;;;;;;;1.90;0.90;;;;;;;;;;5046681;28;20580;-68
2022/08/08 14:00:38;;;;;;;0.93;0.90;;;;;;;;;;5072268;28;20221;-68
2022/08/08 14:03:24;;;;;;;1.93;1.20;;;;;;;;;;5048868;28;20647;-66
2022/08/08 14:06:18;;;;;;;1.53;1.10;;;;;;;;;;5073287;28;20618;-67
2022/08/08 14:09:01;;;;;;;1.27;0.90;;;;;;;;;;5056453;28;20658;-67
2022/08/08 14:11:59;;;;;;;0.90;0.90;;;;;;;;;;5055451;28;20637;-67
2022/08/08 14:14:57;;;;;;;1.10;1.00;;;;;;;;;;5066114;28;20205;-67
2022/08/08 14:17:25;;;;;;;1.37;1.00;;;;;;;;;;5049885;28;20703;-67
2022/08/08 14:20:08;;;;;;;1.20;1.10;;;;;;;;;;5071385;28;20270;-67
2022/08/08 14:23:15;;;;;;;1.10;1.00;;;;;;;;;;5067445;28;20284;-67
2022/08/08 14:26:06;;;;;;;1.30;1.20;;;;;;;;;;5069223;28;20209;-68
2022/08/08 14:28:39;;;;;;;1.37;1.10;;;;;;;;;;5070484;28;20194;-68
2022/08/08 14:31:09;;;;;;;1.17;1.00;;;;;;;;;;5067051;28;20201;-67
2022/08/08 14:34:01;;;;;;;1.20;1.03;;;;;;;;;;5062908;28;20276;-68
2022/08/08 14:36:39;;;;;;;1.17;0.90;;;;;;;;;;5071451;28;20281;-68
2022/08/08 14:39:22;;;;;;;0.93;0.83;;;;;;;;;;5064474;28;20194;-68
2022/08/08 14:41:58;;;;;;;1.63;1.00;;;;;;;;;;5068410;28;20740;-67
2022/08/08 14:44:36;;;;;;;2.27;0.80;;;;;;;;;;5061698;28;20822;-67
2022/08/08 14:47:09;;;;;;;0.80;0.70;;;;;;;;;;5068033;28;20206;-67
2022/08/08 14:49:51;;;;;;;0.93;0.80;;;;;;;;;;5053327;28;20274;-67
2022/08/08 14:52:48;;;;;;;1.13;1.03;;;;;;;;;;5068955;28;20202;-67
2022/08/08 14:55:20;;;;;;;1.20;1.00;;;;;;;;;;5057741;28;20204;-67
2022/08/08 14:58:07;;;;;;;0.70;0.70;;;;;;;;;;5068772;28;20226;-67
2022/08/08 15:00:52;;;;;;;1.37;0.90;;;;;;;;;;5045102;28;20198;-67
2022/08/08 15:03:24;;;;;;;1.23;0.90;;;;;;;;;;5059140;28;20193;-67
2022/08/08 15:06:05;;;;;;;1.70;1.00;;;;;;;;;;5070829;28;20633;-67
2022/08/08 15:08:47;;;;;;;1.43;1.10;;;;;;;;;;5064945;28;20223;-67
2022/08/08 15:11:22;;;;;;;0.70;0.70;;;;;;;;;;5057697;28;20197;-67
2022/08/08 15:13:55;;;;;;;1.87;0.90;;;;;;;;;;5065969;28;20233;-67
2022/08/08 15:16:30;;;;;;;1.17;1.10;;;;;;;;;;5071860;28;20212;-67
2022/08/08 15:19:02;;;;;;;1.10;1.00;;;;;;;;;;5065907;28;20615;-68
2022/08/08 15:21:35;;;;;;;1.73;1.10;;;;;;;;;;5057610;28;20213;-67
2022/08/08 15:24:12;;;;;;;0.80;0.80;;;;;;;;;;5063935;28;20193;-67
2022/08/08 15:26:45;;;;;;;1.33;0.83;;;;;;;;;;5066313;28;20194;-67
2022/08/08 15:29:21;;;;;;;1.17;0.90;;;;;;;;;;5064942;28;20205;-67
2022/08/08 15:31:56;;;;;;;1.43;0.90;;;;;;;;;;5047609;28;20213;-67
2022/08/08 15:34:49;;;;;;;1.27;1.00;;;;;;;;;;5068342;28;20673;-67
2022/08/08 15:37:18;;;;;;;0.97;0.90;;;;;;;;;;5052462;28;20240;-67
2022/08/08 15:39:48;;;;;;;1.10;0.90;;;;;;;;;;5048958;28;20653;-67
2022/08/08 15:42:23;;;;;;;1.70;1.27;;;;;;;;;;5067120;28;20627;-67
2022/08/08 15:45:05;;;;;;;2.17;0.80;;;;;;;;;;5029149;28;20678;-67
2022/08/08 15:47:33;;;;;;;1.00;0.90;;;;;;;;;;5025231;28;20215;-67
2022/08/08 15:50:06;;;;;;;1.20;1.10;;;;;;;;;;5049056;28;20218;-67
2022/08/08 15:52:46;;;;;;;1.33;0.90;;;;;;;;;;5046531;28;20209;-67
2022/08/08 15:55:21;;;;;;;1.20;1.10;;;;;;;;;;5034672;28;20210;-67
2022/08/08 15:58:11;;;;;;;0.97;0.87;;;;;;;;;;5046093;28;20564;-67
2022/08/08 16:00:43;;;;;;;1.60;1.07;;;;;;;;;;5045736;28;20217;-67
2022/08/08 16:03:18;;;;;;;1.67;1.00;;;;;;;;;;5049031;28;20190;-67
2022/08/08 16:05:55;;;;;;;1.23;1.10;;;;;;;;;;5026328;28;20187;-67
2022/08/08 16:08:30;;;;;;;1.23;1.03;;;;;;;;;;5045590;28;20572;-66
2022/08/08 16:11:11;;;;;;;0.93;0.90;;;;;;;;;;5027286;28;20251;-66
2022/08/08 16:14:04;;;;;;;1.63;1.00;;;;;;;;;;5046676;28;20200;-67
2022/08/08 16:16:54;;;;;;;1.73;1.10;;;;;;;;;;5036748;28;20229;-68
2022/08/08 16:19:24;;;;;;;3.00;1.10;;;;;;;;;;5051134;28;20217;-67
2022/08/08 16:21:54;;;;;;;1.07;0.97;;;;;;;;;;5029071;28;20266;-67
2022/08/08 16:24:28;;;;;;;1.40;1.03;;;;;;;;;;5028171;28;20191;-67
2022/08/08 16:26:58;;;;;;;1.00;0.90;;;;;;;;;;5056415;28;20227;-66
2022/08/08 16:29:30;;;;;;;1.30;1.07;;;;;;;;;;5046853;28;20523;-66
2022/08/08 16:32:22;;;;;;;1.07;0.90;;;;;;;;;;5043336;28;20309;-67
2022/08/08 16:34:55;;;;;;;2.20;0.90;;;;;;;;;;5049803;28;20225;-66